Time;durP1;ratioP1;P1;durP2;ratioP2;P2;SDS_P1;SDS_P2;PMS_P1;PMS_P2;Temp;Humidity;BMP_temperature;BMP_pressure;BME280_temperature;BME280_humidity;BME280_pressure;Samples;Min_cycle;Max_cycle;Signal;HPM_P1;HPM_P2
2023/08/17 00:00:26;;;;;;;111.18;56.90;;;20.50;85.00;;;;;;4973795;28;96476;-53
2023/08/17 00:02:52;;;;;;;111.57;56.80;;;20.40;85.00;;;;;;4985997;28;95169;-49
2023/08/17 00:05:17;;;;;;;112.70;56.92;;;20.40;84.90;;;;;;4980311;28;96467;-50
2023/08/17 00:07:43;;;;;;;112.47;57.17;;;20.40;84.90;;;;;;4978509;28;95096;-51
2023/08/17 00:10:09;;;;;;;111.22;56.90;;;20.40;85.20;;;;;;4977676;28;95529;-49
2023/08/17 00:12:35;;;;;;;112.18;56.67;;;20.40;85.00;;;;;;4972754;28;96714;-53
2023/08/17 00:15:00;;;;;;;112.57;57.10;;;20.40;85.10;;;;;;4980561;28;95996;-49
2023/08/17 00:17:26;;;;;;;112.05;56.67;;;20.40;85.20;;;;;;4988726;28;95077;-49
2023/08/17 00:19:52;;;;;;;112.00;57.13;;;20.30;85.10;;;;;;4978677;28;95866;-50
2023/08/17 00:22:17;;;;;;;112.68;57.35;;;20.30;85.10;;;;;;4986447;28;97504;-49
2023/08/17 00:24:44;;;;;;;110.65;56.80;;;20.30;85.10;;;;;;4972328;28;99084;-51
2023/08/17 00:27:11;;;;;;;112.60;57.45;;;20.30;85.10;;;;;;4988212;28;97117;-50
2023/08/17 00:29:36;;;;;;;111.07;57.13;;;20.30;85.10;;;;;;4978944;28;95825;-51
2023/08/17 00:32:03;;;;;;;112.10;57.03;;;20.30;85.40;;;;;;4974078;28;97208;-53
2023/08/17 00:34:28;;;;;;;111.88;57.38;;;20.30;85.20;;;;;;4975833;28;98266;-55
2023/08/17 00:36:54;;;;;;;112.43;56.70;;;20.20;85.80;;;;;;4974566;28;95167;-53
2023/08/17 00:39:19;;;;;;;111.45;56.75;;;20.30;85.20;;;;;;4979280;28;101002;-56
2023/08/17 00:41:46;;;;;;;114.35;57.38;;;20.20;85.20;;;;;;4975714;28;94747;-54
2023/08/17 00:44:11;;;;;;;112.30;57.33;;;20.20;85.20;;;;;;4981597;28;100387;-54
2023/08/17 00:46:38;;;;;;;112.70;57.20;;;20.20;85.30;;;;;;4976197;28;95680;-55
2023/08/17 00:49:04;;;;;;;112.95;57.42;;;20.20;85.30;;;;;;4979259;28;96160;-54
2023/08/17 00:51:30;;;;;;;111.10;57.08;;;20.10;85.50;;;;;;4984547;28;95969;-53
2023/08/17 00:53:59;;;;;;;111.13;56.92;;;20.10;85.50;;;;;;4978186;28;100198;-54
2023/08/17 00:56:25;;;;;;;112.47;57.03;;;20.10;85.40;;;;;;4986882;28;95808;-53
2023/08/17 00:58:51;;;;;;;112.13;56.90;;;20.10;85.50;;;;;;4969014;28;96835;-55
2023/08/17 01:01:17;;;;;;;112.40;57.20;;;20.10;85.50;;;;;;4977714;28;95069;-54
2023/08/17 01:03:43;;;;;;;111.78;56.88;;;20.10;85.50;;;;;;4973375;28;98118;-54
2023/08/17 01:06:09;;;;;;;111.35;56.97;;;20.10;85.50;;;;;;4974838;28;96078;-55
2023/08/17 01:08:36;;;;;;;111.57;56.78;;;20.10;85.60;;;;;;4977098;28;95775;-55
2023/08/17 01:11:13;;;;;;;111.63;57.20;;;20.00;85.60;;;;;;4986168;28;95530;-56
2023/08/17 01:13:51;;;;;;;111.70;57.22;;;20.00;85.70;;;;;;4983748;28;98464;-56
2023/08/17 01:16:26;;;;;;;111.47;57.00;;;20.00;85.70;;;;;;4982566;28;95063;-53
2023/08/17 01:18:52;;;;;;;112.35;57.25;;;20.00;85.90;;;;;;4988360;28;95397;-53
2023/08/17 01:21:19;;;;;;;111.43;57.15;;;19.90;85.80;;;;;;4976737;28;99001;-50
2023/08/17 01:23:46;;;;;;;112.07;57.25;;;20.00;86.00;;;;;;4980852;28;99575;-53
2023/08/17 01:26:15;;;;;;;113.72;57.33;;;19.90;85.90;;;;;;4979419;28;96836;-55
2023/08/17 01:28:47;;;;;;;111.50;57.35;;;19.90;86.20;;;;;;4987633;28;96034;-55
2023/08/17 01:31:31;;;;;;;113.78;57.60;;;19.90;86.10;;;;;;4976296;28;97037;-55
2023/08/17 01:34:03;;;;;;;112.82;57.78;;;19.80;86.70;;;;;;4982298;28;96461;-53
2023/08/17 01:36:45;;;;;;;111.72;57.05;;;19.80;86.10;;;;;;4987096;28;96315;-53
2023/08/17 01:39:11;;;;;;;111.90;57.15;;;19.80;86.20;;;;;;4980954;28;95113;-52
2023/08/17 01:41:38;;;;;;;112.28;57.58;;;19.80;86.30;;;;;;4981673;28;98790;-50
2023/08/17 01:44:04;;;;;;;111.20;57.05;;;19.80;86.40;;;;;;4983688;28;95112;-53
2023/08/17 01:46:34;;;;;;;112.57;57.17;;;19.70;86.50;;;;;;4988342;28;94257;-53
2023/08/17 01:49:00;;;;;;;112.50;57.20;;;19.70;86.50;;;;;;4980846;28;95827;-48
2023/08/17 01:51:25;;;;;;;112.10;57.72;;;19.70;86.50;;;;;;4979019;28;97196;-51
2023/08/17 01:53:51;;;;;;;111.07;57.25;;;19.70;87.30;;;;;;4979760;28;100307;-51
2023/08/17 01:56:17;;;;;;;112.65;57.60;;;19.70;86.60;;;;;;4989765;28;95046;-49
2023/08/17 01:58:43;;;;;;;111.75;57.38;;;19.70;86.60;;;;;;4976930;28;99380;-50
2023/08/17 02:01:08;;;;;;;111.55;57.47;;;19.70;86.90;;;;;;4990686;28;94591;-49
2023/08/17 02:03:34;;;;;;;112.88;57.10;;;19.60;86.70;;;;;;4978867;28;95355;-51
2023/08/17 02:06:00;;;;;;;112.88;57.00;;;19.60;86.70;;;;;;4977294;28;95875;-47
2023/08/17 02:08:25;;;;;;;112.03;56.85;;;19.60;87.00;;;;;;4986116;28;96707;-50
2023/08/17 02:10:52;;;;;;;112.30;57.45;;;19.60;87.50;;;;;;4981184;28;93955;-50
2023/08/17 02:13:18;;;;;;;111.30;56.90;;;19.60;86.80;;;;;;4984610;28;96967;-49
2023/08/17 02:15:44;;;;;;;111.78;57.03;;;19.60;86.80;;;;;;4981568;28;95927;-51
2023/08/17 02:18:10;;;;;;;112.18;57.50;;;19.60;87.00;;;;;;4961292;28;98538;-49
2023/08/17 02:20:35;;;;;;;110.78;56.88;;;19.60;87.10;;;;;;4981154;28;95639;-49
2023/08/17 02:23:01;;;;;;;111.72;57.30;;;19.60;86.80;;;;;;4975062;28;99161;-48
2023/08/17 02:25:33;;;;;;;111.82;57.13;;;19.50;87.00;;;;;;4989091;28;95856;-51
2023/08/17 02:28:00;;;;;;;111.80;57.22;;;19.50;86.90;;;;;;4976205;28;97174;-51
2023/08/17 02:30:25;;;;;;;111.25;57.33;;;19.50;87.00;;;;;;4984985;28;94708;-50
2023/08/17 02:32:51;;;;;;;111.10;57.15;;;19.50;87.10;;;;;;4979626;28;96678;-50
2023/08/17 02:35:16;;;;;;;111.75;57.75;;;19.50;87.10;;;;;;4979960;28;94746;-51
2023/08/17 02:37:42;;;;;;;114.53;57.75;;;19.50;87.00;;;;;;4963802;28;97151;-52
2023/08/17 02:40:08;;;;;;;110.95;56.78;;;19.50;87.30;;;;;;4977290;28;94755;-49
2023/08/17 02:42:34;;;;;;;110.80;56.95;;;19.50;87.20;;;;;;4982186;28;97813;-48
2023/08/17 02:44:59;;;;;;;110.72;57.30;;;19.40;87.80;;;;;;4986463;28;98814;-48
2023/08/17 02:47:25;;;;;;;110.80;56.90;;;19.40;87.10;;;;;;4982369;28;95642;-49
2023/08/17 02:49:50;;;;;;;112.07;57.60;;;19.40;87.40;;;;;;4977590;28;96110;-48
2023/08/17 02:52:16;;;;;;;111.63;57.55;;;19.40;87.10;;;;;;4981778;28;98789;-50
2023/08/17 02:54:41;;;;;;;112.13;57.30;;;19.40;87.50;;;;;;4980021;28;95014;-49
2023/08/17 02:57:08;;;;;;;111.53;57.30;;;19.40;87.50;;;;;;4986967;28;97040;-52
2023/08/17 02:59:33;;;;;;;111.72;57.65;;;19.40;87.40;;;;;;4981173;28;95338;-50
2023/08/17 03:01:59;;;;;;;111.88;57.90;;;19.40;87.40;;;;;;4984349;28;99171;-51
2023/08/17 03:04:24;;;;;;;115.10;57.42;;;19.40;87.80;;;;;;4985376;28;97321;-51
2023/08/17 03:06:50;;;;;;;112.15;56.83;;;19.40;87.50;;;;;;4983657;28;99558;-48
2023/08/17 03:09:16;;;;;;;113.30;57.58;;;19.40;87.70;;;;;;4978989;28;95637;-47
2023/08/17 03:11:41;;;;;;;113.28;57.67;;;19.40;87.40;;;;;;4980405;28;95880;-49
2023/08/17 03:14:07;;;;;;;113.38;57.45;;;19.40;87.40;;;;;;4972681;28;96307;-51
2023/08/17 03:16:32;;;;;;;110.57;56.88;;;19.40;88.30;;;;;;4980143;28;95251;-51
2023/08/17 03:18:58;;;;;;;111.53;57.72;;;19.40;88.30;;;;;;4973661;28;95425;-51
2023/08/17 03:21:24;;;;;;;111.55;56.92;;;19.40;87.70;;;;;;4977559;28;95947;-50
2023/08/17 03:23:50;;;;;;;111.75;57.58;;;19.40;89.30;;;;;;4972970;22;94205;-72
2023/08/17 03:26:15;;;;;;;110.20;56.80;;;19.40;87.70;;;;;;4964135;28;94693;-72
2023/08/17 03:28:41;;;;;;;111.80;57.53;;;19.40;88.30;;;;;;4948637;28;94740;-73
2023/08/17 03:31:08;;;;;;;110.40;56.63;;;19.40;87.80;;;;;;4943378;28;97256;-72
2023/08/17 03:33:34;;;;;;;111.70;57.28;;;19.30;89.70;;;;;;4959636;28;95205;-73
2023/08/17 03:36:00;;;;;;;113.32;57.58;;;19.30;87.80;;;;;;4941739;28;98016;-72
2023/08/17 03:38:26;;;;;;;111.22;57.08;;;19.40;88.70;;;;;;4965087;28;96968;-72
2023/08/17 03:40:52;;;;;;;110.32;56.60;;;19.30;88.70;;;;;;4961498;28;96073;-73
2023/08/17 03:43:17;;;;;;;110.55;56.65;;;19.30;89.70;;;;;;4951415;28;96089;-72
2023/08/17 03:45:44;;;;;;;112.63;56.75;;;19.40;89.10;;;;;;4948883;28;95495;-73
2023/08/17 03:48:09;;;;;;;111.30;56.88;;;19.30;89.40;;;;;;4953272;28;93704;-73
2023/08/17 03:50:35;;;;;;;110.30;56.50;;;19.30;89.10;;;;;;4967997;28;94541;-72
2023/08/17 03:53:01;;;;;;;110.75;57.28;;;19.30;89.90;;;;;;4960569;28;94634;-73
2023/08/17 03:55:26;;;;;;;113.10;57.17;;;19.30;87.90;;;;;;4961446;28;99289;-73
2023/08/17 03:57:52;;;;;;;110.35;56.97;;;19.20;88.10;;;;;;4958091;28;95361;-74
2023/08/17 04:00:18;;;;;;;113.38;58.03;;;19.20;88.10;;;;;;4966268;28;95177;-72
2023/08/17 04:02:44;;;;;;;111.28;57.45;;;19.20;88.10;;;;;;4948509;28;96355;-73
2023/08/17 04:05:09;;;;;;;111.32;57.63;;;19.20;87.90;;;;;;4961746;28;94899;-72
2023/08/17 04:07:36;;;;;;;111.75;57.63;;;19.20;88.10;;;;;;4959078;28;95933;-72
2023/08/17 04:10:03;;;;;;;110.90;57.75;;;19.20;87.70;;;;;;4951825;28;95682;-72
2023/08/17 04:12:28;;;;;;;111.40;58.00;;;19.20;87.70;;;;;;4956470;28;95831;-72
2023/08/17 04:14:54;;;;;;;112.63;57.42;;;19.20;87.70;;;;;;4958293;28;95388;-73
2023/08/17 04:17:20;;;;;;;112.43;58.33;;;19.20;87.70;;;;;;4943381;28;95509;-72
2023/08/17 04:19:46;;;;;;;111.60;57.83;;;19.20;87.70;;;;;;4955978;28;100552;-72
2023/08/17 04:22:12;;;;;;;111.30;57.95;;;19.20;87.80;;;;;;4954523;28;95695;-73
2023/08/17 04:24:37;;;;;;;110.18;56.72;;;19.20;87.80;;;;;;4956667;28;94363;-73
2023/08/17 04:27:04;;;;;;;111.72;57.92;;;19.20;88.10;;;;;;4954644;28;98887;-72
2023/08/17 04:29:31;;;;;;;111.68;57.72;;;19.20;87.70;;;;;;4953017;28;97061;-73
2023/08/17 04:31:57;;;;;;;110.85;57.05;;;19.10;87.60;;;;;;4957604;28;96703;-72
2023/08/17 04:34:23;;;;;;;112.30;57.70;;;19.20;87.90;;;;;;4938360;28;94786;-72
2023/08/17 04:36:48;;;;;;;110.13;56.88;;;19.10;87.70;;;;;;4957406;28;94964;-73
2023/08/17 04:39:14;;;;;;;110.15;57.22;;;19.20;88.60;;;;;;4955462;28;97009;-73
2023/08/17 04:41:40;;;;;;;111.75;57.95;;;19.20;88.00;;;;;;4938003;28;95934;-72
2023/08/17 04:44:05;;;;;;;111.60;57.50;;;19.10;87.70;;;;;;4957491;28;96075;-72
2023/08/17 04:46:31;;;;;;;110.80;57.47;;;19.10;88.10;;;;;;4958253;28;96040;-72
2023/08/17 04:48:56;;;;;;;111.18;56.95;;;19.10;87.80;;;;;;4943065;28;95575;-73
2023/08/17 04:51:22;;;;;;;111.07;57.30;;;19.10;87.60;;;;;;4966280;28;95182;-73
2023/08/17 04:53:47;;;;;;;109.95;56.80;;;19.10;87.70;;;;;;4958400;28;96393;-73
2023/08/17 04:56:13;;;;;;;110.38;57.30;;;19.10;87.60;;;;;;4965202;28;96267;-73
2023/08/17 04:58:39;;;;;;;109.93;57.03;;;19.10;87.60;;;;;;4957601;28;95153;-74
2023/08/17 05:01:04;;;;;;;111.55;57.38;;;19.10;87.80;;;;;;4957206;28;94514;-70
2023/08/17 05:03:31;;;;;;;111.78;57.67;;;19.10;88.10;;;;;;4950780;28;94710;-72
2023/08/17 05:05:56;;;;;;;112.85;57.45;;;19.10;87.60;;;;;;4961836;28;97296;-73
2023/08/17 05:08:22;;;;;;;110.05;57.08;;;19.10;87.80;;;;;;4959722;28;95345;-72
2023/08/17 05:10:48;;;;;;;110.72;57.40;;;19.10;87.80;;;;;;4946534;28;100392;-72
2023/08/17 05:13:13;;;;;;;111.30;56.40;;;19.10;88.60;;;;;;4966621;28;95563;-71
2023/08/17 05:15:39;;;;;;;108.70;55.83;;;19.20;92.20;;;;;;4961976;28;95141;-71
2023/08/17 05:18:05;;;;;;;111.47;56.95;;;19.30;92.10;;;;;;4963951;28;99740;-71
2023/08/17 05:20:32;;;;;;;111.57;57.25;;;19.30;91.80;;;;;;4944065;28;99194;-71
2023/08/17 05:22:57;;;;;;;112.75;57.35;;;19.30;91.40;;;;;;4937576;28;93999;-70
2023/08/17 05:25:23;;;;;;;111.97;57.67;;;19.30;90.80;;;;;;4925431;28;94550;-71
2023/08/17 05:27:49;;;;;;;113.05;57.45;;;19.30;90.40;;;;;;4934271;28;98196;-71
2023/08/17 05:30:15;;;;;;;110.60;57.08;;;19.30;90.20;;;;;;4918285;28;97848;-71
2023/08/17 05:32:41;;;;;;;111.85;56.70;;;19.30;89.90;;;;;;4920690;28;97347;-72
2023/08/17 05:35:07;;;;;;;111.07;56.60;;;19.30;89.60;;;;;;4928257;28;95132;-70
2023/08/17 05:37:32;;;;;;;111.32;57.05;;;19.20;89.40;;;;;;4923502;28;99206;-70
2023/08/17 05:39:58;;;;;;;110.47;56.90;;;19.30;89.40;;;;;;4926597;28;96493;-69
2023/08/17 05:42:24;;;;;;;112.85;57.15;;;19.30;89.20;;;;;;4927499;28;95282;-69
2023/08/17 05:44:49;;;;;;;111.20;57.00;;;19.30;89.20;;;;;;4928436;28;94818;-70
2023/08/17 05:47:17;;;;;;;112.28;56.97;;;19.30;89.40;;;;;;4915838;28;98430;-71
2023/08/17 05:49:43;;;;;;;111.25;56.88;;;19.30;89.30;;;;;;4924058;28;95663;-72
2023/08/17 05:52:09;;;;;;;113.60;56.83;;;19.40;89.20;;;;;;4926138;28;95841;-73
2023/08/17 05:54:34;;;;;;;111.32;56.72;;;19.40;89.10;;;;;;4920945;28;99428;-72
2023/08/17 05:57:00;;;;;;;113.57;56.67;;;19.40;89.40;;;;;;4929033;28;98553;-71
2023/08/17 05:59:25;;;;;;;111.78;57.20;;;19.40;89.50;;;;;;4924270;28;96146;-72
2023/08/17 06:01:51;;;;;;;114.00;56.63;;;19.40;89.30;;;;;;4926410;28;95800;-72
2023/08/17 06:04:17;;;;;;;111.45;56.55;;;19.40;89.10;;;;;;4928521;28;94548;-71
2023/08/17 06:06:42;;;;;;;115.13;57.25;;;19.40;89.00;;;;;;4920637;28;96498;-71
2023/08/17 06:09:08;;;;;;;110.78;56.83;;;19.40;89.40;;;;;;4922949;28;95009;-71
2023/08/17 06:11:34;;;;;;;112.15;57.10;;;19.50;89.60;;;;;;4919492;28;96615;-72
2023/08/17 06:14:00;;;;;;;110.45;56.63;;;19.50;89.70;;;;;;4916156;28;93939;-70
2023/08/17 06:16:25;;;;;;;112.95;56.47;;;19.50;89.50;;;;;;4924343;28;94561;-71
2023/08/17 06:18:51;;;;;;;113.80;56.53;;;19.50;89.90;;;;;;4922001;28;96576;-73
2023/08/17 06:21:16;;;;;;;113.22;57.03;;;19.50;89.50;;;;;;4928134;28;96281;-71
2023/08/17 06:23:42;;;;;;;111.28;56.35;;;19.60;89.80;;;;;;4923104;28;95730;-70
2023/08/17 06:26:08;;;;;;;115.18;57.03;;;19.60;89.30;;;;;;4927348;28;96636;-71
2023/08/17 06:28:34;;;;;;;110.45;56.65;;;19.60;89.60;;;;;;4927817;28;96600;-71
2023/08/17 06:30:59;;;;;;;110.43;56.47;;;19.60;89.40;;;;;;4924667;28;94599;-72
2023/08/17 06:33:25;;;;;;;110.47;56.42;;;19.60;88.60;;;;;;4926232;28;95387;-72
2023/08/17 06:35:51;;;;;;;112.80;56.95;;;19.60;89.30;;;;;;4921251;28;97421;-75
2023/08/17 06:38:17;;;;;;;113.35;58.28;;;19.60;89.20;;;;;;4923468;28;95089;-69
2023/08/17 06:40:42;;;;;;;115.70;58.60;;;19.60;88.40;;;;;;4923761;28;94916;-70
2023/08/17 06:43:09;;;;;;;113.97;58.65;;;19.60;89.20;;;;;;4923803;28;96706;-71
2023/08/17 06:45:34;;;;;;;114.15;58.30;;;19.60;89.20;;;;;;4915940;28;97407;-71
2023/08/17 06:48:00;;;;;;;111.07;57.05;;;19.50;90.00;;;;;;4932733;28;95212;-72
2023/08/17 06:50:26;;;;;;;114.50;58.50;;;19.60;90.40;;;;;;4937784;28;96588;-73
2023/08/17 06:52:52;;;;;;;112.20;58.03;;;19.70;89.90;;;;;;4931066;28;97231;-72
2023/08/17 06:55:18;;;;;;;114.68;58.22;;;19.80;88.80;;;;;;4926446;28;94881;-72
2023/08/17 06:57:43;;;;;;;112.30;57.95;;;19.70;89.40;;;;;;4927201;28;95169;-71
2023/08/17 07:00:11;;;;;;;113.32;58.22;;;19.90;89.40;;;;;;4927949;28;94606;-72
2023/08/17 07:02:36;;;;;;;113.15;58.15;;;19.90;89.60;;;;;;4928766;28;94748;-71
2023/08/17 07:05:03;;;;;;;112.63;58.17;;;20.00;88.50;;;;;;4921484;28;96729;-70
2023/08/17 07:07:30;;;;;;;114.15;57.47;;;20.10;88.50;;;;;;4925160;28;94746;-71
2023/08/17 07:09:56;;;;;;;116.25;58.53;;;20.20;88.20;;;;;;4927777;28;95583;-72
2023/08/17 07:12:23;;;;;;;112.22;58.00;;;20.30;86.30;;;;;;4925609;28;98474;-71
2023/08/17 07:14:49;;;;;;;114.57;57.97;;;20.30;85.90;;;;;;4928532;28;96080;-70
2023/08/17 07:17:15;;;;;;;113.57;58.20;;;20.20;87.30;;;;;;4925599;28;95201;-70
2023/08/17 07:19:41;;;;;;;116.50;58.10;;;20.30;87.00;;;;;;4924785;28;94718;-72
2023/08/17 07:22:07;;;;;;;113.82;57.75;;;20.40;85.70;;;;;;4926004;28;95348;-72
2023/08/17 07:24:32;;;;;;;114.15;58.60;;;20.40;85.30;;;;;;4966166;28;95040;-72
2023/08/17 07:26:58;;;;;;;112.85;58.13;;;20.40;86.30;;;;;;4962265;28;93889;-71
2023/08/17 07:29:23;;;;;;;114.38;58.42;;;20.60;85.40;;;;;;4965882;28;93928;-70
2023/08/17 07:31:49;;;;;;;114.78;58.83;;;20.60;85.70;;;;;;4960832;28;95980;-71
2023/08/17 07:34:15;;;;;;;114.40;58.10;;;20.70;85.20;;;;;;4959384;28;96761;-71
2023/08/17 07:36:41;;;;;;;115.28;58.85;;;20.80;85.60;;;;;;4947424;28;99222;-71
2023/08/17 07:39:06;;;;;;;114.60;58.70;;;20.90;84.80;;;;;;4944822;28;95502;-71
2023/08/17 07:41:32;;;;;;;115.38;58.03;;;20.90;83.90;;;;;;4964876;28;95686;-72
2023/08/17 07:43:58;;;;;;;114.85;58.47;;;20.80;85.10;;;;;;4969811;28;94951;-72
2023/08/17 07:46:24;;;;;;;113.65;58.63;;;21.00;83.50;;;;;;4953208;28;96480;-72
2023/08/17 07:48:50;;;;;;;113.85;58.40;;;21.00;83.20;;;;;;4963236;28;94550;-72
2023/08/17 07:51:15;;;;;;;116.80;58.88;;;21.10;83.00;;;;;;4961455;28;93806;-71
2023/08/17 07:53:41;;;;;;;116.70;58.35;;;21.10;83.20;;;;;;4960685;28;97109;-71
2023/08/17 07:56:07;;;;;;;113.85;58.20;;;21.10;82.40;;;;;;4942232;28;95852;-71
2023/08/17 07:58:33;;;;;;;113.15;58.30;;;21.10;82.60;;;;;;4961997;28;100253;-71
2023/08/17 08:00:58;;;;;;;113.60;57.83;;;21.00;83.20;;;;;;4959157;28;95425;-72
2023/08/17 08:03:24;;;;;;;115.20;58.30;;;21.00;84.00;;;;;;4963402;28;94811;-71
2023/08/17 08:05:49;;;;;;;116.45;59.17;;;21.10;82.50;;;;;;4958610;28;95749;-72
2023/08/17 08:08:17;;;;;;;117.30;58.70;;;21.20;83.50;;;;;;4968226;28;95566;-72
2023/08/17 08:10:43;;;;;;;114.85;58.67;;;21.20;82.60;;;;;;4962799;28;96730;-72
2023/08/17 08:13:09;;;;;;;117.32;59.25;;;21.30;82.50;;;;;;4963852;28;94960;-72
2023/08/17 08:15:34;;;;;;;114.45;58.75;;;21.40;81.20;;;;;;4962693;28;99383;-70
2023/08/17 08:18:00;;;;;;;118.00;58.83;;;21.40;81.90;;;;;;4965793;28;95380;-72
2023/08/17 08:20:26;;;;;;;115.38;58.95;;;21.50;81.40;;;;;;4960863;28;95141;-72
2023/08/17 08:22:51;;;;;;;114.35;58.75;;;21.50;81.40;;;;;;4962828;28;96683;-72
2023/08/17 08:25:17;;;;;;;116.35;59.30;;;21.50;80.40;;;;;;4965316;28;94978;-71
2023/08/17 08:27:42;;;;;;;116.90;59.00;;;21.60;80.50;;;;;;4965989;28;99424;-73
2023/08/17 08:30:08;;;;;;;119.93;58.88;;;21.50;79.70;;;;;;4964644;28;94854;-72
2023/08/17 08:32:34;;;;;;;120.40;59.05;;;21.60;80.60;;;;;;4966037;28;95507;-71
2023/08/17 08:35:00;;;;;;;116.63;58.95;;;21.70;80.00;;;;;;4954403;28;94701;-72
2023/08/17 08:37:25;;;;;;;118.10;58.75;;;21.70;79.90;;;;;;4965343;28;95823;-72
2023/08/17 08:39:53;;;;;;;117.85;58.70;;;21.80;79.60;;;;;;4970745;28;94029;-72
2023/08/17 08:42:19;;;;;;;118.82;59.00;;;21.90;80.00;;;;;;4957047;28;95559;-72
2023/08/17 08:44:45;;;;;;;115.18;59.05;;;21.90;79.50;;;;;;4965153;28;95166;-71
2023/08/17 08:47:12;;;;;;;117.82;58.28;;;21.80;79.40;;;;;;4961544;28;99263;-71
2023/08/17 08:49:40;;;;;;;113.82;58.15;;;21.70;80.70;;;;;;4947478;28;95337;-71
2023/08/17 08:52:08;;;;;;;115.28;58.67;;;21.70;81.60;;;;;;4968404;28;94794;-70
2023/08/17 08:54:37;;;;;;;118.10;58.65;;;21.80;80.60;;;;;;4967546;28;95898;-72
2023/08/17 08:57:08;;;;;;;117.95;59.80;;;21.90;80.50;;;;;;4971100;28;94773;-71
2023/08/17 08:59:35;;;;;;;117.72;59.78;;;21.90;80.00;;;;;;4970381;28;95029;-70
2023/08/17 09:02:02;;;;;;;120.00;59.85;;;22.10;79.60;;;;;;4963352;28;95816;-70
2023/08/17 09:04:28;;;;;;;120.10;60.38;;;22.10;79.30;;;;;;4966034;28;95339;-70
2023/08/17 09:06:56;;;;;;;119.53;59.88;;;22.10;79.20;;;;;;4952683;28;95251;-71
2023/08/17 09:09:23;;;;;;;120.72;60.78;;;22.20;79.40;;;;;;4965802;28;95087;-71
2023/08/17 09:11:48;;;;;;;120.70;61.03;;;22.10;78.20;;;;;;4951600;28;97659;-72
2023/08/17 09:14:14;;;;;;;115.93;58.72;;;22.00;79.50;;;;;;4944557;28;95413;-72
2023/08/17 09:16:39;;;;;;;118.22;60.00;;;22.10;80.30;;;;;;4964552;28;95067;-70
2023/08/17 09:19:06;;;;;;;118.47;60.38;;;22.20;78.40;;;;;;4967638;28;99365;-70
2023/08/17 09:21:32;;;;;;;118.18;60.88;;;22.20;78.40;;;;;;4950583;28;98313;-72
2023/08/17 09:23:58;;;;;;;118.45;59.05;;;22.20;77.90;;;;;;4971504;28;94713;-71
2023/08/17 09:26:24;;;;;;;116.35;57.95;;;22.20;78.60;;;;;;4971125;28;95231;-71
2023/08/17 09:28:58;;;;;;;118.05;60.15;;;22.20;79.40;;;;;;4965374;28;94005;-72
2023/08/17 09:31:24;;;;;;;116.97;59.75;;;22.10;79.10;;;;;;4965212;28;94732;-71
2023/08/17 09:33:51;;;;;;;116.68;59.65;;;22.00;79.30;;;;;;4955451;28;96056;-71
2023/08/17 09:36:23;;;;;;;121.82;60.25;;;22.10;78.80;;;;;;4962930;28;98294;-71
2023/08/17 09:38:51;;;;;;;115.70;58.88;;;22.10;78.30;;;;;;4970124;28;95122;-72
2023/08/17 09:41:18;;;;;;;116.55;60.33;;;22.10;78.90;;;;;;4967957;28;95323;-71
2023/08/17 09:43:44;;;;;;;114.50;57.97;;;22.10;78.20;;;;;;4959004;28;95702;-72
2023/08/17 09:46:10;;;;;;;122.03;59.22;;;22.20;78.90;;;;;;4964977;28;96473;-71
2023/08/17 09:48:36;;;;;;;119.20;61.05;;;22.20;78.30;;;;;;4961785;28;94580;-71
2023/08/17 09:51:02;;;;;;;117.97;60.17;;;22.30;77.90;;;;;;4946435;28;96040;-70
2023/08/17 09:53:27;;;;;;;120.50;60.95;;;22.20;78.70;;;;;;4958941;28;95068;-71
2023/08/17 09:55:55;;;;;;;120.32;60.88;;;22.20;78.20;;;;;;4965041;28;95691;-70
2023/08/17 09:58:20;;;;;;;120.05;59.78;;;22.10;79.20;;;;;;4959716;28;96854;-71
2023/08/17 10:00:50;;;;;;;118.78;61.65;;;22.00;80.00;;;;;;4965178;28;96140;-71
2023/08/17 10:03:17;;;;;;;118.47;59.35;;;22.10;78.20;;;;;;4950495;28;96705;-71
2023/08/17 10:05:47;;;;;;;119.75;60.05;;;22.10;79.10;;;;;;4962829;28;97429;-71
2023/08/17 10:08:12;;;;;;;121.88;60.85;;;22.20;78.60;;;;;;4971385;28;94288;-71
2023/08/17 10:10:45;;;;;;;116.45;59.65;;;22.20;78.10;;;;;;4969063;28;95768;-71
2023/08/17 10:13:31;;;;;;;115.68;59.00;;;22.20;79.80;;;;;;4966523;28;98653;-71
2023/08/17 10:16:10;;;;;;;116.80;58.95;;;22.20;78.40;;;;;;4966996;28;98097;-72
2023/08/17 10:18:45;;;;;;;119.68;60.55;;;22.20;78.90;;;;;;4961726;28;94021;-71
2023/08/17 10:21:21;;;;;;;120.65;59.92;;;22.30;77.60;;;;;;4961063;28;96545;-71
2023/08/17 10:23:48;;;;;;;119.93;60.30;;;22.30;77.60;;;;;;4951328;28;96161;-71
2023/08/17 10:26:16;;;;;;;118.55;59.33;;;22.30;77.40;;;;;;4961999;28;96409;-72
2023/08/17 10:28:42;;;;;;;121.45;61.17;;;22.30;78.30;;;;;;4964298;28;94751;-70
2023/08/17 10:31:09;;;;;;;117.30;59.80;;;22.30;77.20;;;;;;4958367;28;94693;-71
2023/08/17 10:33:35;;;;;;;119.50;61.10;;;22.40;77.90;;;;;;4968349;28;94446;-71
2023/08/17 10:36:01;;;;;;;118.43;59.60;;;22.40;77.20;;;;;;4950916;28;95132;-73
2023/08/17 10:38:27;;;;;;;118.95;58.75;;;22.30;79.30;;;;;;4956164;28;96764;-75
2023/08/17 10:41:13;;;;;;;117.00;58.25;;;22.50;80.90;;;;;;4968477;28;97546;-75
2023/08/17 10:43:58;;;;;;;116.20;58.13;;;22.60;79.30;;;;;;4965989;28;95146;-76
2023/08/17 10:46:34;;;;;;;122.50;58.00;;;22.70;78.40;;;;;;4962417;28;95853;-74
2023/08/17 10:49:05;;;;;;;117.55;58.28;;;22.80;77.20;;;;;;4949035;28;95708;-72
2023/08/17 10:51:31;;;;;;;121.88;61.75;;;22.90;77.60;;;;;;4951975;28;100097;-70
2023/08/17 10:54:02;;;;;;;122.93;60.95;;;22.80;76.30;;;;;;4952877;28;96503;-71
2023/08/17 10:56:29;;;;;;;118.07;58.97;;;22.80;77.10;;;;;;4949213;28;94426;-71
2023/08/17 10:58:59;;;;;;;120.72;60.58;;;22.90;76.40;;;;;;4951292;28;98184;-72
2023/08/17 11:01:51;;;;;;;122.40;62.83;;;23.00;75.50;;;;;;4959695;28;96172;-73
2023/08/17 11:04:17;;;;;;;123.30;61.90;;;23.00;75.60;;;;;;4956149;28;97481;-72
2023/08/17 11:06:44;;;;;;;121.32;62.10;;;22.80;76.40;;;;;;4940196;28;97578;-72
2023/08/17 11:09:11;;;;;;;119.78;59.92;;;22.80;75.70;;;;;;4942391;28;95062;-71
2023/08/17 11:11:37;;;;;;;121.60;62.70;;;22.90;77.30;;;;;;4955361;28;96621;-73
2023/08/17 11:14:03;;;;;;;119.38;61.97;;;22.90;76.50;;;;;;4959946;28;98885;-71
2023/08/17 11:16:29;;;;;;;121.13;62.45;;;22.80;76.60;;;;;;4961250;28;96129;-71
2023/08/17 11:18:58;;;;;;;118.47;59.58;;;22.80;76.80;;;;;;4962980;28;95779;-70
2023/08/17 11:21:24;;;;;;;121.70;62.42;;;22.90;76.50;;;;;;4963684;28;95252;-71
2023/08/17 11:23:50;;;;;;;123.95;63.08;;;23.00;77.50;;;;;;4959111;28;94856;-71
2023/08/17 11:26:19;;;;;;;122.72;62.20;;;23.00;76.20;;;;;;4960607;28;95773;-71
2023/08/17 11:28:45;;;;;;;125.35;62.33;;;23.00;76.60;;;;;;4962635;28;95446;-71
2023/08/17 11:31:12;;;;;;;127.18;63.45;;;23.00;76.20;;;;;;4967146;28;94487;-71
2023/08/17 11:33:39;;;;;;;122.43;63.33;;;23.00;76.20;;;;;;4967648;28;94034;-72
2023/08/17 11:36:07;;;;;;;122.72;62.05;;;23.00;77.60;;;;;;4958328;28;95580;-72
2023/08/17 11:38:40;;;;;;;121.30;61.30;;;23.10;75.70;;;;;;4965410;28;94677;-72
2023/08/17 11:41:08;;;;;;;125.65;63.88;;;23.20;75.60;;;;;;4954725;28;96450;-71
2023/08/17 11:43:34;;;;;;;119.72;61.42;;;23.20;75.30;;;;;;4951406;28;95191;-72
2023/08/17 11:46:01;;;;;;;123.63;62.53;;;23.20;75.10;;;;;;4940766;28;96407;-72
2023/08/17 11:48:27;;;;;;;123.07;62.75;;;23.20;75.00;;;;;;4962349;28;96070;-72
2023/08/17 11:50:54;;;;;;;121.53;61.95;;;23.20;76.10;;;;;;4959459;28;97010;-72
2023/08/17 11:53:20;;;;;;;122.28;63.55;;;23.10;75.70;;;;;;4943812;28;95327;-71
2023/08/17 11:55:46;;;;;;;124.40;63.22;;;23.00;75.60;;;;;;4962069;28;94052;-71
2023/08/17 11:58:12;;;;;;;121.20;63.28;;;22.90;77.60;;;;;;4954441;28;94800;-71
2023/08/17 12:00:44;;;;;;;125.53;63.45;;;23.00;76.60;;;;;;4967010;28;94889;-71
2023/08/17 12:03:14;;;;;;;120.78;63.35;;;23.00;78.20;;;;;;4953510;28;94659;-70
2023/08/17 12:05:40;;;;;;;127.10;63.22;;;23.00;76.50;;;;;;4954279;28;95652;-70
2023/08/17 12:08:08;;;;;;;122.15;60.67;;;22.90;76.80;;;;;;4958127;28;95600;-72
2023/08/17 12:10:34;;;;;;;122.95;63.35;;;23.00;77.50;;;;;;4957628;28;95646;-72
2023/08/17 12:13:01;;;;;;;120.55;61.60;;;23.00;77.00;;;;;;4948008;28;94420;-70
2023/08/17 12:15:35;;;;;;;122.15;63.25;;;23.20;76.80;;;;;;4939498;28;94805;-73